Hlavní strana
METAR-TAF:

METAR-TAF

Letiště :

Göteborg-Landvetter, Švédsko

zeměpisná šířka: 57-40N, zeměpisná délka: 012-18E, výška: 169 m

Aktuální stav počasí

Zpráva byla vytvořena před 34 minutami, v 02:50 UTC
Jihojihovýchodní vítr 4 kt
Teplota 3°C
Vlhkost vzduchu 87%
Tlak 1023 hPa
Viditelnost 10 km a více
Žádná oblačnost pod 1500 m, nevyskytují se cumulonimby.

METAR: ESGG 190250Z 16004KT CAVOK 03/01 Q1023

Čas: 05:24 (03:24 UTC)

Předpověď počasí

Zpráva byla vytvořena před 3 hodinami a 54 minutami, v 23:30 UTC
Předpověď platná od 19 v 00 UTC do 19 v 24 UTC
vítr z různých směrů 2 kt
Viditelnost 10 km a více
Žádná oblačnost pod 1500 m, nevyskytují se cumulonimby.
Pravděpodobnost 40%
od 19 v 00 UTC do 19 v 08 UTC
Viditelnost: 0300 m
ve výšce 200 ft
mlha

TAF: ESGG 182330Z 1900/1924 VRB02KT CAVOK PROB40 1900/1908 0300 FG VV002

Stav a předpovědi počasí z více než 4 000 letišť (zprávy METAR a TAF).

Červené a žluté tečky na mapě představují dostupné meteorologické stanice.

Když kurzor umístíte na tečku, zobrazí se název stanice.

Pak kliknutím zobrazíte stav a předpověď počasí.

Chcete-li změnit mapu, kliknutím na zelené tlačítko se znaménkem +mapu přiblížíte, kliknutím na zelené tlačítko se znaménkem – mapu oddálíte a kliknutím na zelené šipky přejdete na sousední mapy.


METAR-TAF: